Time;durP1;ratioP1;P1;durP2;ratioP2;P2;SDS_P1;SDS_P2;PMS_P1;PMS_P2;Temp;Humidity;BMP_temperature;BMP_pressure;BME280_temperature;BME280_humidity;BME280_pressure;Samples;Min_cycle;Max_cycle;Signal;HPM_P1;HPM_P2
2021/03/23 00:00:54;;;;;;;1.40;0.68;;;5.40;86.40;;;;;;5012438;28;20238;-62
2021/03/23 00:03:36;;;;;;;2.47;0.80;;;5.40;86.60;;;;;;5010111;28;20669;-61
2021/03/23 00:06:07;;;;;;;2.03;0.80;;;5.40;86.60;;;;;;5027680;28;20052;-62
2021/03/23 00:08:40;;;;;;;2.47;0.65;;;5.40;86.60;;;;;;5016921;28;20344;-61
2021/03/23 00:11:15;;;;;;;2.50;0.80;;;5.40;86.50;;;;;;5014754;28;20125;-61
2021/03/23 00:13:44;;;;;;;1.48;0.60;;;5.40;86.40;;;;;;5019188;28;20074;-60
2021/03/23 00:16:14;;;;;;;2.40;0.77;;;5.40;86.50;;;;;;5016586;28;20060;-60
2021/03/23 00:18:42;;;;;;;1.73;0.70;;;5.40;86.40;;;;;;5016753;28;20041;-60
2021/03/23 00:21:13;;;;;;;2.00;0.70;;;5.40;86.30;;;;;;5018455;28;20391;-60
2021/03/23 00:23:44;;;;;;;2.88;0.70;;;5.40;86.20;;;;;;5018410;28;20085;-59
2021/03/23 00:26:22;;;;;;;5.05;0.80;;;5.40;86.40;;;;;;5030931;28;20242;-61
2021/03/23 00:28:52;;;;;;;2.47;1.02;;;5.40;86.20;;;;;;5016198;28;20186;-60
2021/03/23 00:31:22;;;;;;;2.03;0.80;;;5.40;86.30;;;;;;5020639;28;20557;-60
2021/03/23 00:33:51;;;;;;;2.05;0.77;;;5.40;86.40;;;;;;5021797;28;20045;-61
2021/03/23 00:36:23;;;;;;;3.47;0.80;;;5.30;86.30;;;;;;5019058;28;20056;-60
2021/03/23 00:38:51;;;;;;;2.50;1.00;;;5.30;86.40;;;;;;5021465;28;20117;-60
2021/03/23 00:41:48;;;;;;;1.48;0.60;;;5.30;86.50;;;;;;5020121;28;20046;-61
2021/03/23 00:44:19;;;;;;;1.65;0.68;;;5.20;86.50;;;;;;5015174;28;20472;-60
2021/03/23 00:46:47;;;;;;;4.97;1.48;;;5.30;86.60;;;;;;5020646;28;20232;-60
2021/03/23 00:49:15;;;;;;;2.17;0.90;;;5.30;86.70;;;;;;5018935;28;20108;-60
2021/03/23 00:51:43;;;;;;;2.90;1.00;;;5.30;86.70;;;;;;5020914;28;20375;-60
2021/03/23 00:54:11;;;;;;;1.10;0.60;;;5.20;86.70;;;;;;5035795;28;20050;-60
2021/03/23 00:56:40;;;;;;;2.78;1.20;;;5.20;86.60;;;;;;5015019;28;20053;-61
2021/03/23 00:59:09;;;;;;;1.65;0.63;;;5.20;86.80;;;;;;5015934;28;20292;-60
2021/03/23 01:01:36;;;;;;;3.17;1.27;;;5.20;86.70;;;;;;5012530;28;20238;-61
2021/03/23 01:04:06;;;;;;;5.35;0.70;;;5.20;86.60;;;;;;5013199;28;20050;-60
2021/03/23 01:06:33;;;;;;;1.92;0.93;;;5.20;86.60;;;;;;5016078;28;20049;-60
2021/03/23 01:09:02;;;;;;;3.03;0.90;;;5.20;86.40;;;;;;5013241;28;20065;-61
2021/03/23 01:11:35;;;;;;;2.25;0.77;;;5.20;86.50;;;;;;5018998;28;20049;-60
2021/03/23 01:14:04;;;;;;;3.78;1.17;;;5.20;86.40;;;;;;5016006;28;20228;-62
2021/03/23 01:16:32;;;;;;;2.53;1.10;;;5.20;86.30;;;;;;5017265;28;20065;-61
2021/03/23 01:19:01;;;;;;;6.15;1.08;;;5.30;86.20;;;;;;5022707;28;20046;-61
2021/03/23 01:21:30;;;;;;;2.13;1.00;;;5.20;86.20;;;;;;5018779;28;20053;-61
2021/03/23 01:23:59;;;;;;;2.55;0.90;;;5.20;86.30;;;;;;5017408;28;20061;-61
2021/03/23 01:26:26;;;;;;;2.63;0.90;;;5.20;86.50;;;;;;5011632;28;20045;-60
2021/03/23 01:28:54;;;;;;;2.42;1.20;;;5.20;86.80;;;;;;5011431;28;20145;-61
2021/03/23 01:31:23;;;;;;;2.22;0.88;;;5.10;86.90;;;;;;5013940;28;20045;-61
2021/03/23 01:33:51;;;;;;;2.40;0.90;;;5.10;86.80;;;;;;5010666;28;20061;-61
2021/03/23 01:36:20;;;;;;;2.25;1.10;;;5.20;86.60;;;;;;5011892;28;21010;-61
2021/03/23 01:38:48;;;;;;;2.42;0.82;;;5.10;86.60;;;;;;5015020;28;20380;-61
2021/03/23 01:41:16;;;;;;;1.98;1.00;;;5.10;86.50;;;;;;5009692;28;20045;-60
2021/03/23 01:43:44;;;;;;;2.38;1.08;;;5.20;86.60;;;;;;5013249;28;20056;-60
2021/03/23 01:46:38;;;;;;;2.25;0.80;;;5.20;86.30;;;;;;5009704;28;20045;-61
2021/03/23 01:49:10;;;;;;;2.00;1.10;;;5.10;86.50;;;;;;5011790;28;20060;-61
2021/03/23 01:51:39;;;;;;;1.40;0.60;;;5.10;86.50;;;;;;5013006;28;20058;-60
2021/03/23 01:54:12;;;;;;;2.70;0.95;;;5.20;86.50;;;;;;5010403;28;20046;-60
2021/03/23 01:56:42;;;;;;;2.70;1.05;;;5.20;86.30;;;;;;5026702;28;20134;-61
2021/03/23 01:59:10;;;;;;;1.48;0.85;;;5.20;86.10;;;;;;5011103;28;20045;-61
2021/03/23 02:01:39;;;;;;;4.13;1.70;;;5.20;86.20;;;;;;5010450;28;20337;-60
2021/03/23 02:04:10;;;;;;;2.45;0.80;;;5.20;86.10;;;;;;5011885;28;20109;-61
2021/03/23 02:06:42;;;;;;;3.28;1.20;;;5.30;86.00;;;;;;5014394;28;20061;-60
2021/03/23 02:09:14;;;;;;;8.35;1.67;;;5.20;86.00;;;;;;5011847;28;20136;-61
2021/03/23 02:11:47;;;;;;;3.38;1.20;;;5.20;85.90;;;;;;5019516;28;20049;-60
2021/03/23 02:14:16;;;;;;;1.70;0.85;;;5.20;85.80;;;;;;5007287;28;20056;-61
2021/03/23 02:16:49;;;;;;;2.20;1.02;;;5.20;86.00;;;;;;5011562;28;20388;-60
2021/03/23 02:19:21;;;;;;;3.17;1.02;;;5.20;86.10;;;;;;5013734;28;20061;-62
2021/03/23 02:21:50;;;;;;;3.80;1.30;;;5.20;86.20;;;;;;5013634;28;20288;-61
2021/03/23 02:24:19;;;;;;;1.67;0.90;;;5.20;86.20;;;;;;5012240;28;20050;-61
2021/03/23 02:26:46;;;;;;;2.15;0.98;;;5.20;86.20;;;;;;5012864;28;20052;-60
2021/03/23 02:29:17;;;;;;;5.18;1.42;;;5.20;86.30;;;;;;5014690;28;20395;-61
2021/03/23 02:31:47;;;;;;;2.45;1.23;;;5.20;86.30;;;;;;5008615;28;20088;-61
2021/03/23 02:34:20;;;;;;;2.42;1.10;;;5.20;86.30;;;;;;5011819;28;20431;-61
2021/03/23 02:36:50;;;;;;;4.25;1.23;;;5.20;86.20;;;;;;5011377;28;20076;-61
2021/03/23 02:39:24;;;;;;;2.72;0.93;;;5.20;86.20;;;;;;5013039;28;20053;-61
2021/03/23 02:41:52;;;;;;;4.25;1.20;;;5.10;86.40;;;;;;5015054;28;20092;-61
2021/03/23 02:44:20;;;;;;;1.92;0.82;;;5.20;86.40;;;;;;5012864;28;20528;-60
2021/03/23 02:46:48;;;;;;;3.15;1.05;;;5.10;86.40;;;;;;5013702;28;20049;-60
2021/03/23 02:49:17;;;;;;;2.13;0.90;;;5.20;86.50;;;;;;5013212;28;20337;-61
2021/03/23 02:51:50;;;;;;;2.88;1.02;;;5.20;86.30;;;;;;5015473;28;20245;-61
2021/03/23 02:54:18;;;;;;;3.15;1.20;;;5.20;86.30;;;;;;5012983;28;20046;-60
2021/03/23 02:56:46;;;;;;;2.88;1.10;;;5.20;86.30;;;;;;5014814;28;20105;-61
2021/03/23 02:59:15;;;;;;;2.47;1.60;;;5.20;86.20;;;;;;5013095;28;20052;-61
2021/03/23 03:01:45;;;;;;;2.28;1.00;;;5.20;86.10;;;;;;5009407;28;20054;-61
2021/03/23 03:04:13;;;;;;;3.05;0.77;;;5.20;86.20;;;;;;5011165;28;20272;-60
2021/03/23 03:06:42;;;;;;;1.38;0.55;;;5.20;86.30;;;;;;5013270;28;20046;-61
2021/03/23 03:09:12;;;;;;;2.05;0.80;;;5.20;86.50;;;;;;5016622;28;20112;-61
2021/03/23 03:11:43;;;;;;;1.52;0.70;;;5.10;86.60;;;;;;5016997;28;20068;-60
2021/03/23 03:14:11;;;;;;;1.90;0.57;;;5.10;86.70;;;;;;5019078;28;20466;-61
2021/03/23 03:16:41;;;;;;;2.37;0.90;;;5.10;86.70;;;;;;5017141;28;20729;-61
2021/03/23 03:19:09;;;;;;;1.08;0.50;;;5.10;86.60;;;;;;5016265;28;20219;-61
2021/03/23 03:21:37;;;;;;;2.33;1.30;;;5.10;86.70;;;;;;5007619;28;20349;-61
2021/03/23 03:24:06;;;;;;;1.33;0.60;;;5.10;86.60;;;;;;5012062;28;20050;-61
2021/03/23 03:26:35;;;;;;;3.85;0.93;;;5.20;86.70;;;;;;5012230;28;20069;-61
2021/03/23 03:29:05;;;;;;;2.28;0.90;;;5.20;86.30;;;;;;5011746;28;20083;-60
2021/03/23 03:31:34;;;;;;;2.58;1.13;;;5.20;86.30;;;;;;5013481;28;20393;-61
2021/03/23 03:34:03;;;;;;;2.00;0.80;;;5.20;86.20;;;;;;5009184;28;20042;-61
2021/03/23 03:36:33;;;;;;;2.58;0.98;;;5.30;86.10;;;;;;5011012;28;20050;-60
2021/03/23 03:39:06;;;;;;;1.92;0.77;;;5.20;85.80;;;;;;5012311;28;20061;-61
2021/03/23 03:41:36;;;;;;;2.28;0.90;;;5.20;86.00;;;;;;5015800;28;20084;-61
2021/03/23 03:44:06;;;;;;;1.65;0.75;;;5.20;85.70;;;;;;5016823;28;20053;-60
2021/03/23 03:46:34;;;;;;;4.05;1.33;;;5.10;85.80;;;;;;5016253;28;20109;-61
2021/03/23 03:49:03;;;;;;;2.33;0.90;;;5.10;86.00;;;;;;5017668;28;20045;-61
2021/03/23 03:51:31;;;;;;;4.40;0.80;;;5.10;86.00;;;;;;5017304;28;20064;-60
2021/03/23 03:53:59;;;;;;;3.35;0.95;;;5.20;85.90;;;;;;5015303;28;20069;-61
2021/03/23 03:56:30;;;;;;;2.47;1.00;;;5.20;85.70;;;;;;5017474;28;20042;-61
2021/03/23 03:58:59;;;;;;;1.95;0.77;;;5.10;85.90;;;;;;5016869;28;20229;-61
2021/03/23 04:01:27;;;;;;;1.92;0.93;;;5.10;86.10;;;;;;5014469;28;20233;-61
2021/03/23 04:03:55;;;;;;;2.45;1.05;;;5.10;86.00;;;;;;5029670;28;20049;-60
2021/03/23 04:06:24;;;;;;;1.73;0.90;;;5.10;86.00;;;;;;5014979;28;20042;-61
2021/03/23 04:08:53;;;;;;;3.05;1.38;;;5.00;86.10;;;;;;5018931;28;20053;-61
2021/03/23 04:11:21;;;;;;;2.55;1.10;;;5.10;86.30;;;;;;5012738;28;20249;-61
2021/03/23 04:13:49;;;;;;;3.10;1.05;;;5.10;86.40;;;;;;5013935;28;20257;-61
2021/03/23 04:16:18;;;;;;;3.13;0.98;;;5.10;86.40;;;;;;5015126;28;20065;-61
2021/03/23 04:18:46;;;;;;;4.22;1.63;;;5.20;86.30;;;;;;5027019;28;20065;-61
2021/03/23 04:21:15;;;;;;;3.17;1.30;;;5.20;86.40;;;;;;5033708;28;20096;-61
2021/03/23 04:23:44;;;;;;;6.88;1.70;;;5.20;86.10;;;;;;5031078;28;20077;-61
2021/03/23 04:26:13;;;;;;;4.28;1.25;;;5.20;86.30;;;;;;5018830;28;20042;-61
2021/03/23 04:28:41;;;;;;;3.17;1.35;;;5.20;86.20;;;;;;5016320;28;20045;-61
2021/03/23 04:31:19;;;;;;;2.63;1.48;;;5.20;86.40;;;;;;5019082;28;20041;-60
2021/03/23 04:33:47;;;;;;;3.63;1.30;;;5.20;86.30;;;;;;5019759;28;20479;-61
2021/03/23 04:36:16;;;;;;;3.22;1.33;;;5.30;86.30;;;;;;5033913;28;20099;-61
2021/03/23 04:38:45;;;;;;;3.95;1.42;;;5.30;86.10;;;;;;5015758;28;20233;-60
2021/03/23 04:41:16;;;;;;;4.10;1.90;;;5.20;86.10;;;;;;5017764;28;20061;-60
2021/03/23 04:43:47;;;;;;;4.75;2.28;;;5.20;86.30;;;;;;5021857;28;20127;-61
2021/03/23 04:46:16;;;;;;;;;;;5.30;86.20;;;;;;5019581;28;20065;-61
2021/03/23 04:48:43;;;;;;;3.38;1.38;;;5.20;86.40;;;;;;5018175;28;19992;-61
2021/03/23 04:51:14;;;;;;;3.72;1.95;;;5.20;86.30;;;;;;5016247;28;20044;-61
2021/03/23 04:53:43;;;;;;;3.08;1.27;;;5.20;86.30;;;;;;5018576;28;20092;-62
2021/03/23 04:56:21;;;;;;;5.60;1.50;;;5.20;86.20;;;;;;5012251;28;20054;-61
2021/03/23 04:58:50;;;;;;;3.90;2.22;;;5.30;86.30;;;;;;5026192;28;20249;-61
2021/03/23 05:01:17;;;;;;;3.65;1.48;;;5.30;86.30;;;;;;5012343;28;20109;-60
2021/03/23 05:03:45;;;;;;;2.85;1.20;;;5.30;86.30;;;;;;5014552;28;20057;-61
2021/03/23 05:06:15;;;;;;;3.55;1.48;;;5.30;86.00;;;;;;5017314;28;20099;-61
2021/03/23 05:08:45;;;;;;;3.42;1.48;;;5.30;86.20;;;;;;5014315;28;20054;-60
2021/03/23 05:11:17;;;;;;;3.30;1.15;;;5.30;86.30;;;;;;5014725;28;20077;-60
2021/03/23 05:13:45;;;;;;;2.67;1.00;;;5.20;86.10;;;;;;5016450;28;20057;-61
2021/03/23 05:16:14;;;;;;;5.15;1.30;;;5.20;86.30;;;;;;5012628;28;20057;-61
2021/03/23 05:18:42;;;;;;;2.50;1.00;;;5.30;86.20;;;;;;5014431;28;20053;-61
2021/03/23 05:21:11;;;;;;;2.88;1.20;;;5.30;86.00;;;;;;5015869;28;20049;-60
2021/03/23 05:23:40;;;;;;;4.80;1.02;;;5.20;86.20;;;;;;5015614;28;20039;-61
2021/03/23 05:26:11;;;;;;;3.45;1.42;;;5.30;86.00;;;;;;5014999;28;20095;-61
2021/03/23 05:28:45;;;;;;;2.40;1.02;;;5.20;86.10;;;;;;5014801;28;20104;-61
2021/03/23 05:31:13;;;;;;;2.60;1.05;;;5.20;86.10;;;;;;5015248;28;20061;-61
2021/03/23 05:33:42;;;;;;;3.53;1.48;;;5.20;86.00;;;;;;5013933;28;20206;-61
2021/03/23 05:36:10;;;;;;;5.55;0.80;;;5.20;85.90;;;;;;5017451;28;20046;-61
2021/03/23 05:38:40;;;;;;;3.95;1.27;;;5.20;86.00;;;;;;5015807;28;20096;-61
2021/03/23 05:41:12;;;;;;;2.75;1.13;;;5.10;86.20;;;;;;5014259;28;20064;-61
2021/03/23 05:43:52;;;;;;;5.07;1.25;;;5.10;86.30;;;;;;5013403;28;20038;-61
2021/03/23 05:46:28;;;;;;;4.88;1.27;;;5.20;86.10;;;;;;5015554;28;20374;-60
2021/03/23 05:49:21;;;;;;;3.47;0.82;;;5.20;85.80;;;;;;5021395;28;20116;-61
2021/03/23 05:51:53;;;;;;;2.67;0.90;;;5.20;86.00;;;;;;5006972;28;20261;-60
2021/03/23 05:54:27;;;;;;;2.75;1.40;;;5.30;85.70;;;;;;5012212;28;20184;-60
2021/03/23 05:56:57;;;;;;;4.05;1.40;;;5.30;85.60;;;;;;5015675;28;20080;-60
2021/03/23 05:59:36;;;;;;;2.92;1.23;;;5.30;85.80;;;;;;5012685;28;20317;-61
2021/03/23 06:02:16;;;;;;;3.22;1.15;;;5.40;85.50;;;;;;5010828;28;20049;-60
2021/03/23 06:04:49;;;;;;;2.63;1.10;;;5.40;85.30;;;;;;5013497;28;20058;-61
2021/03/23 06:07:18;;;;;;;4.18;1.52;;;5.30;85.60;;;;;;5014127;28;20476;-60
2021/03/23 06:09:47;;;;;;;4.70;1.58;;;5.40;85.40;;;;;;5014144;28;20045;-60
2021/03/23 06:12:31;;;;;;;3.22;1.33;;;5.40;85.30;;;;;;5012978;28;20092;-61
2021/03/23 06:15:09;;;;;;;5.63;1.42;;;5.40;85.30;;;;;;5011303;28;20054;-60
2021/03/23 06:17:51;;;;;;;4.45;1.65;;;5.50;85.30;;;;;;5011866;28;20060;-61
2021/03/23 06:20:38;;;;;;;3.42;1.23;;;5.50;84.80;;;;;;5015527;28;20351;-61
2021/03/23 06:23:44;;;;;;;2.33;1.20;;;5.40;84.80;;;;;;5013330;28;20053;-61
2021/03/23 06:26:23;;;;;;;2.60;1.20;;;5.60;85.20;;;;;;5012473;28;20249;-60
2021/03/23 06:29:12;;;;;;;4.40;1.50;;;5.60;84.50;;;;;;5015703;28;20046;-60
2021/03/23 06:31:59;;;;;;;;;;;5.70;84.60;;;;;;5015728;28;20710;-60
2021/03/23 06:34:30;;;;;;;4.13;1.98;;;5.70;84.70;;;;;;5014841;28;20573;-60
2021/03/23 06:36:59;;;;;;;3.70;1.60;;;5.70;84.60;;;;;;5010087;28;20069;-61
2021/03/23 06:39:30;;;;;;;6.40;2.10;;;5.70;84.20;;;;;;5012528;28;20041;-60
2021/03/23 06:42:02;;;;;;;3.70;1.60;;;5.70;83.60;;;;;;5014147;28;20161;-61
2021/03/23 06:44:36;;;;;;;4.70;1.70;;;5.90;83.60;;;;;;5014973;28;20159;-61
2021/03/23 06:47:06;;;;;;;5.20;2.35;;;5.90;83.30;;;;;;5013887;28;20046;-61
2021/03/23 06:49:36;;;;;;;10.00;3.10;;;5.90;83.40;;;;;;5015302;28;20056;-61
2021/03/23 06:52:18;;;;;;;6.20;2.63;;;6.00;83.10;;;;;;5012020;28;20260;-61
2021/03/23 06:55:06;;;;;;;6.38;2.53;;;6.10;82.80;;;;;;5015023;28;20053;-60
2021/03/23 06:57:38;;;;;;;6.00;2.63;;;5.90;83.20;;;;;;5011976;28;20535;-61
2021/03/23 07:00:24;;;;;;;5.53;2.67;;;6.00;83.00;;;;;;5009332;28;20146;-61
2021/03/23 07:02:55;;;;;;;4.88;2.78;;;6.10;82.80;;;;;;5012802;28;20134;-61
2021/03/23 07:05:36;;;;;;;7.65;2.58;;;6.20;82.50;;;;;;5009494;28;20515;-61
2021/03/23 07:08:16;;;;;;;8.88;3.70;;;6.20;82.40;;;;;;5009747;28;20065;-61
2021/03/23 07:11:01;;;;;;;10.40;4.07;;;6.20;82.00;;;;;;5013036;28;20058;-61
2021/03/23 07:13:35;;;;;;;7.55;3.30;;;6.30;82.00;;;;;;5011138;28;20376;-61
2021/03/23 07:16:28;;;;;;;10.38;3.70;;;6.40;81.60;;;;;;5009181;28;20260;-61
2021/03/23 07:19:08;;;;;;;9.93;4.68;;;6.40;81.00;;;;;;5011864;28;20033;-61
2021/03/23 07:21:42;;;;;;;10.65;4.28;;;6.50;81.00;;;;;;5013412;28;20049;-61
2021/03/23 07:24:13;;;;;;;13.45;5.13;;;6.50;80.80;;;;;;5011885;28;20042;-61
2021/03/23 07:26:42;;;;;;;12.07;5.05;;;6.50;80.70;;;;;;5011353;28;20388;-61
2021/03/23 07:29:28;;;;;;;10.73;5.18;;;6.50;80.40;;;;;;5011266;28;20050;-60
2021/03/23 07:32:34;;;;;;;13.25;5.85;;;6.40;80.70;;;;;;5010872;28;20223;-61
2021/03/23 07:35:23;;;;;;;11.10;4.22;;;6.50;80.40;;;;;;5010926;28;20062;-61
2021/03/23 07:37:58;;;;;;;13.35;5.43;;;6.50;80.60;;;;;;5011647;28;20046;-61
2021/03/23 07:40:37;;;;;;;16.08;5.55;;;6.70;80.10;;;;;;5008676;28;20648;-60
2021/03/23 07:43:39;;;;;;;15.25;6.00;;;6.40;79.70;;;;;;5009369;28;20050;-62
2021/03/23 07:46:13;;;;;;;12.68;5.78;;;6.50;79.80;;;;;;5007749;28;20096;-61
2021/03/23 07:48:48;;;;;;;12.00;5.25;;;6.70;79.70;;;;;;5012958;28;20046;-61
2021/03/23 07:51:30;;;;;;;15.43;7.10;;;6.70;78.90;;;;;;5010082;28;20038;-61
2021/03/23 07:54:18;;;;;;;16.10;7.50;;;6.60;79.40;;;;;;5027320;28;20050;-59
2021/03/23 07:57:15;;;;;;;17.75;8.05;;;6.60;79.10;;;;;;5005456;28;20065;-61
2021/03/23 08:00:14;;;;;;;15.90;6.13;;;6.80;78.90;;;;;;5011987;28;20326;-60
2021/03/23 08:03:26;;;;;;;14.10;6.82;;;6.80;79.20;;;;;;5012732;28;20869;-59
2021/03/23 08:06:02;;;;;;;19.30;8.30;;;6.80;78.20;;;;;;5000179;28;20388;-60
2021/03/23 08:08:48;;;;;;;18.70;9.13;;;6.80;77.80;;;;;;5013049;28;20062;-60
2021/03/23 08:11:34;;;;;;;21.73;9.50;;;6.90;77.50;;;;;;5010929;28;20201;-61
2021/03/23 08:14:27;;;;;;;17.60;7.32;;;7.00;77.00;;;;;;5013072;28;20053;-62
2021/03/23 08:17:15;;;;;;;18.35;7.85;;;7.20;75.50;;;;;;5011046;28;20042;-61
2021/03/23 08:20:03;;;;;;;22.02;9.20;;;7.10;75.30;;;;;;5011419;28;20060;-61
2021/03/23 08:22:59;;;;;;;19.45;9.43;;;7.10;75.20;;;;;;5010668;28;20645;-61
2021/03/23 08:25:45;;;;;;;18.05;7.50;;;7.20;73.80;;;;;;5010544;28;20557;-61
2021/03/23 08:28:36;;;;;;;18.52;9.00;;;7.30;74.00;;;;;;5015364;28;20361;-61
2021/03/23 08:31:20;;;;;;;18.20;8.70;;;7.40;74.40;;;;;;5018516;28;20100;-61
2021/03/23 08:34:08;;;;;;;18.25;9.23;;;7.70;73.50;;;;;;5015944;28;20125;-61
2021/03/23 08:37:05;;;;;;;17.55;8.32;;;7.60;72.80;;;;;;5017323;28;20517;-61
2021/03/23 08:39:45;;;;;;;16.95;8.15;;;7.80;72.00;;;;;;5014789;28;21254;-61
2021/03/23 08:42:17;;;;;;;22.65;8.05;;;7.80;71.50;;;;;;5015898;28;20060;-61
2021/03/23 08:44:48;;;;;;;20.50;8.77;;;8.00;72.10;;;;;;5015816;28;20049;-61
2021/03/23 08:47:26;;;;;;;19.35;8.70;;;8.10;71.80;;;;;;5015576;28;20072;-61
2021/03/23 08:49:57;;;;;;;17.70;7.75;;;8.10;69.80;;;;;;5014276;28;20057;-62
2021/03/23 08:52:41;;;;;;;20.90;8.88;;;8.10;70.70;;;;;;5014001;28;20061;-61
2021/03/23 08:55:44;;;;;;;18.73;8.40;;;8.10;70.70;;;;;;5015051;28;20069;-61
2021/03/23 08:58:15;;;;;;;20.88;8.30;;;8.20;70.50;;;;;;5012932;28;20057;-62
2021/03/23 09:01:01;;;;;;;20.10;10.07;;;8.00;67.30;;;;;;5010661;28;20209;-61
2021/03/23 09:03:44;;;;;;;18.20;8.75;;;7.90;66.90;;;;;;5012315;28;20267;-61
2021/03/23 09:06:18;;;;;;;20.30;9.52;;;7.70;66.10;;;;;;5012691;28;20042;-61
2021/03/23 09:08:51;;;;;;;22.35;9.70;;;7.60;66.40;;;;;;5015435;28;20042;-61
2021/03/23 09:12:01;;;;;;;20.75;9.25;;;7.70;66.60;;;;;;5015275;28;20102;-61
2021/03/23 09:14:32;;;;;;;28.60;9.90;;;7.80;65.90;;;;;;5014266;28;20616;-62
2021/03/23 09:17:16;;;;;;;23.73;12.15;;;7.90;65.90;;;;;;5012810;28;20117;-62
2021/03/23 09:19:49;;;;;;;21.35;9.38;;;8.10;65.40;;;;;;5012670;28;20108;-60
2021/03/23 09:22:36;;;;;;;17.55;8.85;;;8.00;65.10;;;;;;5011767;28;20262;-61
2021/03/23 09:25:53;;;;;;;19.98;9.48;;;8.00;64.90;;;;;;5013674;28;20241;-61
2021/03/23 09:28:51;;;;;;;17.52;8.00;;;8.00;65.10;;;;;;5012288;28;20127;-61
2021/03/23 09:31:59;;;;;;;19.70;9.80;;;7.90;64.70;;;;;;5012143;28;20815;-61
2021/03/23 09:35:07;;;;;;;18.33;9.57;;;8.00;65.20;;;;;;5013893;28;20179;-60
2021/03/23 09:37:37;;;;;;;20.42;10.05;;;7.90;64.50;;;;;;5009949;28;20747;-60
2021/03/23 09:40:41;;;;;;;20.45;9.50;;;7.80;65.20;;;;;;5010807;28;20233;-60
2021/03/23 09:43:33;;;;;;;24.33;10.73;;;8.00;64.40;;;;;;5027309;28;20042;-61
2021/03/23 09:46:11;;;;;;;23.15;9.43;;;8.10;63.80;;;;;;5011083;28;20092;-60
2021/03/23 09:49:03;;;;;;;23.10;10.70;;;8.20;63.60;;;;;;5014416;28;20257;-60
2021/03/23 09:51:54;;;;;;;23.95;10.73;;;8.40;62.70;;;;;;5015584;28;20781;-61
2021/03/23 09:54:24;;;;;;;25.02;11.88;;;8.40;62.90;;;;;;5015020;28;22014;-60
2021/03/23 09:56:52;;;;;;;25.60;10.65;;;8.30;62.50;;;;;;5015224;28;20069;-61
2021/03/23 09:59:24;;;;;;;25.45;12.52;;;8.40;62.60;;;;;;5016597;28;20360;-61
2021/03/23 10:02:04;;;;;;;23.52;12.95;;;8.70;61.00;;;;;;5009866;28;20053;-61
2021/03/23 10:04:35;;;;;;;24.15;12.40;;;8.50;61.60;;;;;;5015653;28;21026;-61
2021/03/23 10:07:09;;;;;;;25.58;11.65;;;8.60;61.30;;;;;;5014361;28;20233;-60
2021/03/23 10:09:39;;;;;;;26.92;13.60;;;8.50;61.60;;;;;;5016119;28;20512;-61
2021/03/23 10:12:28;;;;;;;26.83;12.13;;;8.50;62.10;;;;;;5012765;28;20399;-61
2021/03/23 10:14:56;;;;;;;26.88;12.07;;;8.40;62.10;;;;;;5013881;28;20052;-60
2021/03/23 10:17:27;;;;;;;26.23;12.00;;;8.40;62.40;;;;;;5015238;28;20109;-60
2021/03/23 10:19:56;;;;;;;;;;;8.40;62.60;;;;;;5014318;28;20342;-61
2021/03/23 10:22:29;;;;;;;22.40;11.45;;;8.40;62.90;;;;;;5016261;28;19925;-60
2021/03/23 10:24:59;;;;;;;27.08;12.38;;;8.40;62.90;;;;;;5015093;28;20053;-61
2021/03/23 10:27:29;;;;;;;25.95;13.00;;;8.30;62.90;;;;;;5007254;28;20072;-60
2021/03/23 10:30:06;;;;;;;25.17;11.10;;;8.40;62.20;;;;;;5013802;28;20085;-60
2021/03/23 10:32:44;;;;;;;29.20;13.18;;;8.50;62.00;;;;;;5014517;28;20070;-60
2021/03/23 10:35:17;;;;;;;24.95;12.48;;;8.40;62.20;;;;;;5017764;28;20349;-61
2021/03/23 10:37:46;;;;;;;26.95;12.68;;;8.50;62.20;;;;;;5014699;28;20069;-61
2021/03/23 10:40:31;;;;;;;31.25;12.40;;;8.30;62.40;;;;;;5013769;28;20121;-61
2021/03/23 10:42:59;;;;;;;26.80;11.65;;;8.40;62.40;;;;;;5013036;28;20050;-61
2021/03/23 10:45:42;;;;;;;23.08;11.93;;;8.60;62.10;;;;;;5024905;28;20360;-61
2021/03/23 10:48:25;;;;;;;28.30;13.75;;;8.70;62.10;;;;;;5012664;28;20315;-60
2021/03/23 10:51:16;;;;;;;24.67;11.57;;;8.70;61.60;;;;;;5014536;28;20329;-61
2021/03/23 10:53:59;;;;;;;31.48;12.98;;;8.90;61.50;;;;;;5014295;28;20989;-60
2021/03/23 10:56:30;;;;;;;25.60;11.63;;;8.90;61.00;;;;;;5013463;28;20377;-61
2021/03/23 10:59:09;;;;;;;30.92;12.93;;;8.80;60.50;;;;;;5012698;28;20395;-60
2021/03/23 11:01:56;;;;;;;26.30;12.80;;;8.70;61.10;;;;;;5009077;28;20096;-60
2021/03/23 11:04:25;;;;;;;33.75;11.48;;;8.60;61.80;;;;;;5013630;28;20372;-61
2021/03/23 11:06:53;;;;;;;27.17;12.85;;;8.70;61.40;;;;;;5013070;28;20047;-60
2021/03/23 11:09:22;;;;;;;26.20;11.50;;;8.90;61.30;;;;;;5014904;28;21027;-61
2021/03/23 11:11:51;;;;;;;27.17;12.38;;;8.80;61.00;;;;;;5012603;28;20053;-59
2021/03/23 11:14:19;;;;;;;30.60;12.55;;;9.00;61.50;;;;;;5010286;28;20152;-61
2021/03/23 11:16:48;;;;;;;25.17;11.80;;;9.10;61.00;;;;;;5011588;28;20049;-62
2021/03/23 11:19:27;;;;;;;25.92;12.13;;;9.00;60.70;;;;;;5013200;28;20065;-61
2021/03/23 11:21:58;;;;;;;24.58;11.38;;;8.90;60.90;;;;;;5013020;28;20072;-61
2021/03/23 11:24:27;;;;;;;25.63;13.13;;;9.00;61.10;;;;;;5014838;28;20237;-60
2021/03/23 11:26:55;;;;;;;25.23;10.98;;;9.00;61.50;;;;;;5012088;28;20065;-62
2021/03/23 11:29:23;;;;;;;28.50;12.60;;;9.10;60.20;;;;;;5012216;28;20109;-60
2021/03/23 11:31:55;;;;;;;;;;;9.00;60.50;;;;;;5012029;28;20038;-61
2021/03/23 11:34:24;;;;;;;25.45;11.25;;;9.00;60.10;;;;;;5000894;28;20354;-61
2021/03/23 11:36:53;;;;;;;27.33;11.65;;;9.00;60.40;;;;;;5015495;28;20054;-61
2021/03/23 11:39:22;;;;;;;26.05;12.23;;;9.00;60.80;;;;;;5012117;28;20258;-59
2021/03/23 11:42:06;;;;;;;27.60;11.60;;;8.70;60.90;;;;;;5016954;28;20345;-60
2021/03/23 11:44:36;;;;;;;27.05;12.68;;;8.70;61.40;;;;;;5014295;28;20065;-61
2021/03/23 11:47:21;;;;;;;28.73;12.43;;;8.60;62.40;;;;;;5012417;28;20256;-61
2021/03/23 11:50:02;;;;;;;24.00;12.43;;;8.70;61.90;;;;;;5014060;28;20054;-60
2021/03/23 11:52:30;;;;;;;27.27;11.68;;;8.70;61.70;;;;;;5012410;28;20772;-60
2021/03/23 11:55:03;;;;;;;32.22;13.18;;;8.80;61.60;;;;;;5014150;28;20077;-60
2021/03/23 11:57:30;;;;;;;30.83;12.48;;;9.00;60.90;;;;;;5012812;28;20072;-61
2021/03/23 11:59:58;;;;;;;25.88;12.20;;;9.10;60.80;;;;;;5011882;28;20053;-61
2021/03/23 12:02:29;;;;;;;26.65;12.30;;;9.20;60.80;;;;;;5012441;28;20408;-61
2021/03/23 12:04:58;;;;;;;22.33;10.68;;;9.20;60.40;;;;;;5016162;28;20733;-60
2021/03/23 12:07:36;;;;;;;28.60;12.80;;;9.00;60.80;;;;;;5018117;28;20049;-60
2021/03/23 12:10:10;;;;;;;24.38;12.10;;;9.00;60.00;;;;;;5019838;28;20064;-61
2021/03/23 12:12:44;;;;;;;29.90;12.07;;;9.00;61.00;;;;;;5019931;28;20058;-60
2021/03/23 12:15:19;;;;;;;25.60;12.95;;;9.30;60.10;;;;;;5019099;28;20069;-61
2021/03/23 12:17:49;;;;;;;24.48;11.13;;;9.30;59.90;;;;;;5018558;28;20202;-60
2021/03/23 12:20:21;;;;;;;31.30;12.88;;;9.30;59.60;;;;;;5021294;28;20115;-60
2021/03/23 12:22:50;;;;;;;27.10;12.93;;;9.40;59.80;;;;;;5018978;28;20353;-61
2021/03/23 12:25:23;;;;;;;34.03;12.80;;;9.60;59.80;;;;;;5016992;28;20042;-62
2021/03/23 12:27:51;;;;;;;27.80;12.30;;;9.90;58.60;;;;;;5016493;28;20042;-60
2021/03/23 12:30:20;;;;;;;24.63;12.02;;;10.00;58.00;;;;;;5018067;28;20109;-62
2021/03/23 12:32:48;;;;;;;27.35;12.25;;;9.80;57.80;;;;;;5015721;28;20050;-61
2021/03/23 12:35:18;;;;;;;30.73;13.75;;;9.70;57.90;;;;;;5017930;28;20360;-62
2021/03/23 12:37:48;;;;;;;27.73;11.80;;;9.90;58.40;;;;;;5015469;28;20387;-61
2021/03/23 12:40:17;;;;;;;28.63;12.33;;;9.50;58.90;;;;;;5014273;28;20061;-62
2021/03/23 12:42:48;;;;;;;31.52;12.57;;;9.40;59.30;;;;;;5013063;28;20233;-61
2021/03/23 12:45:24;;;;;;;31.17;13.30;;;9.40;59.60;;;;;;5011689;28;20670;-61
2021/03/23 12:47:51;;;;;;;29.42;14.02;;;9.50;59.30;;;;;;5014742;28;20041;-61
2021/03/23 12:50:20;;;;;;;28.33;11.50;;;9.30;59.70;;;;;;5012951;28;20449;-61
2021/03/23 12:52:48;;;;;;;26.92;11.85;;;9.20;60.00;;;;;;5015491;28;20073;-61
2021/03/23 12:55:22;;;;;;;31.20;12.70;;;9.10;60.10;;;;;;5014933;28;20244;-61
2021/03/23 12:57:52;;;;;;;27.52;13.50;;;9.20;61.00;;;;;;5015471;28;20108;-61
2021/03/23 13:00:32;;;;;;;27.88;12.48;;;9.20;60.70;;;;;;5015490;28;20057;-61
2021/03/23 13:03:02;;;;;;;26.23;11.48;;;9.40;60.60;;;;;;5014269;28;20076;-61
2021/03/23 13:05:31;;;;;;;22.80;12.07;;;9.50;59.40;;;;;;5015142;28;20053;-61
2021/03/23 13:08:03;;;;;;;29.65;12.73;;;9.40;59.80;;;;;;5011270;28;20103;-61
2021/03/23 13:10:34;;;;;;;28.45;10.80;;;9.40;60.10;;;;;;4980479;28;20053;-61
2021/03/23 13:13:06;;;;;;;;;;;9.60;59.70;;;;;;5016758;28;20061;-61
2021/03/23 13:15:40;;;;;;;22.98;10.35;;;9.70;60.30;;;;;;5016266;28;19988;-61
2021/03/23 13:18:10;;;;;;;24.80;10.98;;;9.80;59.70;;;;;;5027700;28;20045;-61
2021/03/23 13:20:38;;;;;;;25.37;12.03;;;9.60;59.50;;;;;;5014603;28;20049;-60
2021/03/23 13:23:06;;;;;;;23.92;11.40;;;9.60;59.70;;;;;;5013737;28;20297;-61
2021/03/23 13:25:37;;;;;;;27.73;11.27;;;9.40;59.90;;;;;;5014472;28;20360;-62
2021/03/23 13:28:20;;;;;;;23.92;11.02;;;9.20;60.70;;;;;;5014287;28;20052;-61